Time;durP1;ratioP1;P1;durP2;ratioP2;P2;SDS_P1;SDS_P2;PMS_P1;PMS_P2;Temp;Humidity;BMP_temperature;BMP_pressure;BME280_temperature;BME280_humidity;BME280_pressure;Samples;Min_cycle;Max_cycle;Signal;HPM_P1;HPM_P2
2022/04/26 03:37:25;;;;;;;6.53;2.53;;;11.60;99.90;;;;;;5090920;28;20389;-72
2022/04/26 03:39:51;;;;;;;8.68;3.38;;;11.60;99.90;;;;;;5090808;28;20027;-73
2022/04/26 03:42:17;;;;;;;8.52;2.92;;;11.60;99.90;;;;;;5090746;28;20035;-73
2022/04/26 03:44:43;;;;;;;5.93;2.83;;;11.70;99.90;;;;;;5089989;28;20040;-73
2022/04/26 03:47:09;;;;;;;7.68;3.22;;;11.70;99.90;;;;;;5090782;28;20032;-73
2022/04/26 03:49:35;;;;;;;8.40;3.35;;;11.60;99.90;;;;;;5090643;28;20027;-71
2022/04/26 03:52:01;;;;;;;3.65;2.60;;;11.60;99.90;;;;;;5090875;28;20486;-73
2022/04/26 03:54:27;;;;;;;4.93;2.10;;;12.10;99.90;;;;;;5090555;28;20040;-74
2022/04/26 03:56:53;;;;;;;7.05;2.30;;;12.60;99.90;;;;;;5090856;28;20065;-73
2022/04/26 03:59:19;;;;;;;3.97;2.35;;;12.80;99.90;;;;;;5090470;28;20027;-74
2022/04/26 04:01:46;;;;;;;4.32;1.98;;;13.10;99.90;;;;;;5094048;28;20024;-73
2022/04/26 04:04:12;;;;;;;5.32;2.85;;;13.60;99.90;;;;;;5094420;28;20073;-73
2022/04/26 04:06:38;;;;;;;10.13;2.40;;;13.90;99.90;;;;;;5093881;28;20024;-74
2022/04/26 04:09:03;;;;;;;3.20;2.28;;;14.40;99.90;;;;;;5083772;28;20019;-69
2022/04/26 04:11:29;;;;;;;3.65;2.50;;;14.80;99.90;;;;;;5073622;28;20527;-75
2022/04/26 04:13:55;;;;;;;3.75;2.55;;;15.70;99.90;;;;;;5073662;28;20058;-72
2022/04/26 04:16:21;;;;;;;4.50;2.88;;;16.10;99.90;;;;;;5073673;28;20035;-73
2022/04/26 04:21:31;;;;;;;3.00;2.45;;;17.30;94.80;;;;;;5073271;28;20067;-76
2022/04/26 04:23:58;;;;;;;4.10;2.50;;;17.50;92.70;;;;;;5073403;28;20052;-73
2022/04/26 04:26:24;;;;;;;5.57;2.85;;;17.90;91.50;;;;;;5073312;28;20032;-72
2022/04/26 04:28:50;;;;;;;6.57;2.92;;;18.00;90.50;;;;;;5072389;28;20031;-73
2022/04/26 04:31:16;;;;;;;3.53;2.17;;;18.20;90.80;;;;;;5073294;28;20037;-72
2022/04/26 04:33:45;;;;;;;2.67;2.13;;;18.30;88.80;;;;;;5073598;28;20028;-72
2022/04/26 04:36:11;;;;;;;4.20;1.90;;;18.50;88.00;;;;;;5073147;28;20111;-72
2022/04/26 04:38:38;;;;;;;6.15;2.88;;;18.70;87.70;;;;;;5080226;28;20033;-69
2022/04/26 04:41:06;;;;;;;3.65;2.70;;;19.00;87.50;;;;;;5078207;28;20021;-73
2022/04/26 04:43:32;;;;;;;9.77;2.85;;;19.10;85.10;;;;;;5073946;28;20025;-73
2022/04/26 04:45:58;;;;;;;5.85;2.78;;;18.90;83.70;;;;;;5073673;28;20131;-72
2022/04/26 04:48:24;;;;;;;5.60;2.92;;;19.00;84.60;;;;;;5073754;28;20488;-73
2022/04/26 04:50:50;;;;;;;7.82;3.55;;;18.50;86.30;;;;;;5073343;28;20043;-73
2022/04/26 04:53:20;;;;;;;5.05;3.33;;;18.70;87.70;;;;;;5073680;28;20025;-74
2022/04/26 04:55:46;;;;;;;5.30;3.05;;;19.00;87.10;;;;;;5073660;28;20033;-72
2022/04/26 04:58:12;;;;;;;12.38;4.03;;;18.90;86.20;;;;;;5073418;28;20023;-72
2022/04/26 05:00:37;;;;;;;6.95;3.42;;;19.00;86.70;;;;;;5073166;28;20143;-71
2022/04/26 05:03:04;;;;;;;3.90;2.30;;;19.20;88.90;;;;;;5073059;28;20036;-73
2022/04/26 05:05:30;;;;;;;4.88;2.63;;;19.80;86.20;;;;;;5073319;28;20416;-73
2022/04/26 05:07:58;;;;;;;4.20;2.17;;;18.80;87.70;;;;;;5071045;28;20020;-73
2022/04/26 05:10:30;;;;;;;4.93;2.22;;;17.70;92.20;;;;;;5072731;28;20113;-72
2022/04/26 05:12:55;;;;;;;3.50;2.17;;;17.00;96.00;;;;;;5072809;28;20382;-73
2022/04/26 05:15:21;;;;;;;6.72;2.55;;;17.00;97.90;;;;;;5073098;28;20021;-74
2022/04/26 05:17:47;;;;;;;6.22;3.17;;;16.50;99.30;;;;;;5072862;28;20028;-73
2022/04/26 05:20:13;;;;;;;7.55;2.83;;;16.40;99.90;;;;;;5072961;28;20017;-73
2022/04/26 05:25:26;;;;;;;4.65;2.55;;;16.00;99.90;;;;;;5072855;28;20025;-73
2022/04/26 05:27:51;;;;;;;7.20;3.55;;;16.20;99.90;;;;;;5072716;28;20016;-73
2022/04/26 05:30:17;;;;;;;5.63;3.20;;;16.20;99.90;;;;;;5072519;28;20043;-73
2022/04/26 05:32:43;;;;;;;6.80;2.67;;;16.10;99.90;;;;;;5073048;28;20032;-74
2022/04/26 05:35:10;;;;;;;5.55;2.67;;;15.90;99.90;;;;;;5072781;28;20111;-72
2022/04/26 05:37:36;;;;;;;6.18;2.70;;;15.50;99.90;;;;;;5072409;28;20478;-73
2022/04/26 05:40:03;;;;;;;3.40;2.40;;;15.20;99.90;;;;;;5072547;28;20029;-73
2022/04/26 05:42:29;;;;;;;4.72;2.55;;;15.10;99.90;;;;;;5072465;28;20040;-73
2022/04/26 05:44:56;;;;;;;6.82;3.10;;;15.10;99.90;;;;;;5072407;28;20093;-72
2022/04/26 05:47:22;;;;;;;3.90;2.65;;;15.30;99.90;;;;;;5072704;28;20386;-73
2022/04/26 05:49:48;;;;;;;4.32;2.70;;;15.20;99.90;;;;;;5072531;28;20028;-73
2022/04/26 05:52:14;;;;;;;6.22;2.72;;;15.20;99.90;;;;;;5072322;28;20398;-73
2022/04/26 05:54:40;;;;;;;4.95;2.95;;;15.30;99.90;;;;;;5071683;28;20025;-72
2022/04/26 05:57:06;;;;;;;6.40;3.38;;;15.40;99.90;;;;;;5071797;28;20027;-72
2022/04/26 05:59:32;;;;;;;7.45;4.00;;;15.60;99.90;;;;;;5072049;28;20024;-72
2022/04/26 06:01:58;;;;;;;5.75;3.30;;;15.70;99.90;;;;;;5072000;28;20402;-72
2022/04/26 06:04:24;;;;;;;13.48;3.78;;;15.70;99.90;;;;;;5072459;28;20108;-72
2022/04/26 06:06:51;;;;;;;8.05;4.05;;;15.70;99.90;;;;;;5071948;28;20083;-73
2022/04/26 06:09:17;;;;;;;5.97;3.65;;;15.90;99.90;;;;;;5069640;28;20021;-72
2022/04/26 06:11:43;;;;;;;5.45;3.28;;;15.90;99.90;;;;;;5071667;28;20028;-71
2022/04/26 06:14:09;;;;;;;5.47;3.38;;;15.70;99.90;;;;;;5071610;28;20033;-72
2022/04/26 06:16:35;;;;;;;4.30;3.35;;;15.70;99.90;;;;;;5071640;28;20036;-72
2022/04/26 06:19:01;;;;;;;5.40;3.17;;;15.80;99.90;;;;;;5071548;28;20107;-74
2022/04/26 06:21:27;;;;;;;5.85;3.47;;;15.90;99.90;;;;;;5071632;28;20052;-74
2022/04/26 06:23:52;;;;;;;8.85;3.78;;;16.10;99.90;;;;;;5070921;28;20020;-75
2022/04/26 06:26:18;;;;;;;5.68;2.70;;;16.30;99.90;;;;;;5069870;28;20033;-74
2022/04/26 06:28:44;;;;;;;7.00;3.50;;;16.50;99.90;;;;;;5071376;28;20138;-72
2022/04/26 06:31:10;;;;;;;5.95;3.08;;;16.60;99.90;;;;;;5071004;28;20604;-74
2022/04/26 06:33:37;;;;;;;8.40;3.70;;;16.50;99.90;;;;;;5071608;28;20071;-71
2022/04/26 06:36:04;;;;;;;8.32;3.30;;;16.60;99.90;;;;;;5071346;28;20031;-74
2022/04/26 06:38:30;;;;;;;5.43;3.63;;;16.80;99.90;;;;;;5070523;28;20465;-73
2022/04/26 06:40:57;;;;;;;7.05;3.28;;;17.00;99.90;;;;;;5070292;28;20111;-72
2022/04/26 06:43:23;;;;;;;4.15;3.08;;;17.00;99.90;;;;;;5070742;28;20115;-72
2022/04/26 06:45:49;;;;;;;4.40;2.88;;;17.30;99.90;;;;;;5071078;28;20409;-73
2022/04/26 06:48:17;;;;;;;7.45;3.03;;;17.20;99.90;;;;;;5071054;28;20057;-73
2022/04/26 06:50:44;;;;;;;5.47;3.53;;;17.50;99.90;;;;;;5069921;28;20178;-74
2022/04/26 06:53:11;;;;;;;5.57;3.65;;;17.20;99.90;;;;;;5069248;28;20028;-73
2022/04/26 06:55:36;;;;;;;4.75;2.88;;;17.40;99.90;;;;;;5076129;28;20028;-66
2022/04/26 06:58:03;;;;;;;6.63;2.95;;;17.50;99.90;;;;;;5070841;28;20472;-74
2022/04/26 07:00:29;;;;;;;5.40;3.33;;;17.50;99.90;;;;;;5071014;28;20027;-71
2022/04/26 07:02:55;;;;;;;5.93;3.08;;;17.40;99.90;;;;;;5070432;28;20478;-71
2022/04/26 07:05:22;;;;;;;6.55;3.55;;;17.80;99.90;;;;;;5070558;28;20024;-71
2022/04/26 07:07:52;;;;;;;7.57;3.60;;;17.80;99.90;;;;;;5070656;28;20107;-71
2022/04/26 07:10:18;;;;;;;4.20;3.00;;;17.90;99.90;;;;;;5070336;28;20051;-70
2022/04/26 07:12:44;;;;;;;5.45;3.45;;;18.00;99.90;;;;;;5073191;28;20608;-67
2022/04/26 07:15:10;;;;;;;5.97;2.95;;;18.10;99.90;;;;;;5090704;28;20036;-70
2022/04/26 07:17:40;;;;;;;6.30;3.17;;;18.30;99.90;;;;;;5090697;28;20039;-67
2022/04/26 07:20:08;;;;;;;7.65;3.20;;;18.30;99.90;;;;;;5087526;28;20024;-69
2022/04/26 07:22:35;;;;;;;5.68;2.97;;;18.40;99.20;;;;;;5069728;28;20105;-68
2022/04/26 07:25:00;;;;;;;9.52;3.78;;;18.40;99.90;;;;;;5070311;28;20533;-65
2022/04/26 07:27:26;;;;;;;6.55;3.42;;;18.60;99.90;;;;;;5070545;28;20025;-67
2022/04/26 07:29:53;;;;;;;5.03;3.25;;;18.70;99.90;;;;;;5070176;28;20431;-72
2022/04/26 07:32:19;;;;;;;4.25;3.00;;;18.60;99.90;;;;;;5070314;28;20040;-71
2022/04/26 07:34:45;;;;;;;5.13;2.70;;;19.00;99.90;;;;;;5071251;28;20111;-68
2022/04/26 07:37:11;;;;;;;5.38;2.95;;;19.10;99.90;;;;;;5074630;28;20103;-73
2022/04/26 07:39:37;;;;;;;5.68;3.58;;;19.30;97.40;;;;;;5073977;28;20028;-71
2022/04/26 07:42:05;;;;;;;4.80;3.00;;;19.30;97.90;;;;;;5074501;28;20099;-72
2022/04/26 07:44:31;;;;;;;11.85;3.25;;;19.40;94.90;;;;;;5074252;28;20450;-72
2022/04/26 07:46:58;;;;;;;5.88;3.20;;;19.50;98.80;;;;;;5074510;28;20032;-68
2022/04/26 07:49:26;;;;;;;5.50;3.60;;;19.50;94.80;;;;;;5074515;28;20028;-73
2022/04/26 07:51:52;;;;;;;7.57;2.97;;;19.70;99.90;;;;;;5074351;28;20028;-72
2022/04/26 07:54:19;;;;;;;3.35;2.78;;;19.80;98.90;;;;;;5074437;28;20032;-66
2022/04/26 07:56:46;;;;;;;5.95;3.10;;;20.00;93.40;;;;;;5074425;28;20028;-66
2022/04/26 07:59:14;;;;;;;122.15;43.95;;;19.70;94.20;;;;;;5074394;28;20101;-66
2022/04/26 08:01:40;;;;;;;9.98;4.60;;;20.10;94.40;;;;;;5074001;28;20032;-72
2022/04/26 08:04:06;;;;;;;13.52;4.75;;;20.50;91.70;;;;;;5074358;28;20024;-72
2022/04/26 08:06:32;;;;;;;20.48;9.02;;;20.50;95.20;;;;;;5074066;28;20025;-72
2022/04/26 08:08:58;;;;;;;11.13;5.70;;;20.20;94.70;;;;;;5073555;28;20052;-70
2022/04/26 08:11:28;;;;;;;11.10;4.05;;;20.30;94.60;;;;;;5074004;28;20041;-70
2022/04/26 08:13:54;;;;;;;5.55;2.72;;;20.70;93.40;;;;;;5074072;28;20523;-70
2022/04/26 08:16:20;;;;;;;5.20;2.25;;;20.70;86.80;;;;;;5074092;28;20131;-71
2022/04/26 08:18:46;;;;;;;5.28;2.65;;;20.60;86.30;;;;;;5073622;28;20103;-73
2022/04/26 08:21:15;;;;;;;3.85;2.30;;;20.70;88.50;;;;;;5070641;28;20027;-66
2022/04/26 08:29:14;;;;;;;2.25;1.90;;;20.80;86.60;;;;;;5054352;28;20063;-69
2022/04/26 08:31:41;;;;;;;2.83;2.05;;;20.90;84.10;;;;;;5058678;28;20057;-72
2022/04/26 08:34:07;;;;;;;2.88;1.70;;;20.70;83.50;;;;;;5063359;28;20021;-68
2022/04/26 08:36:34;;;;;;;3.38;1.92;;;20.80;84.00;;;;;;5058449;28;20059;-71
2022/04/26 08:39:01;;;;;;;4.43;2.50;;;20.80;86.00;;;;;;5052408;28;20394;-74
2022/04/26 08:41:27;;;;;;;9.43;2.30;;;20.90;88.90;;;;;;5057838;28;20462;-71
2022/04/26 08:43:53;;;;;;;3.10;1.70;;;20.90;84.10;;;;;;5072854;28;20039;-72
2022/04/26 08:46:19;;;;;;;3.80;1.90;;;20.80;84.00;;;;;;5072592;28;20653;-72
2022/04/26 08:51:29;;;;;;;3.35;1.60;;;21.00;83.00;;;;;;5072922;28;20036;-71
2022/04/26 08:53:55;;;;;;;3.92;1.42;;;20.90;85.00;;;;;;5073132;28;20541;-72
2022/04/26 08:56:21;;;;;;;7.03;1.77;;;20.50;83.40;;;;;;5073264;28;20031;-72
2022/04/26 08:58:48;;;;;;;1.60;1.23;;;20.90;80.90;;;;;;5072753;28;20647;-72
2022/04/26 09:01:27;;;;;;;2.95;1.48;;;20.70;81.10;;;;;;5073293;28;20066;-71
2022/04/26 09:03:55;;;;;;;4.43;1.98;;;20.60;81.60;;;;;;5069398;28;20503;-72
2022/04/26 09:06:35;;;;;;;1.52;1.42;;;20.70;80.20;;;;;;5064345;28;20028;-71
2022/04/26 09:09:14;;;;;;;2.58;1.38;;;20.70;80.60;;;;;;5053394;28;20037;-71
2022/04/26 09:11:41;;;;;;;2.75;1.70;;;20.80;81.20;;;;;;5054880;28;20135;-72
2022/04/26 09:14:09;;;;;;;1.60;1.50;;;20.90;83.10;;;;;;5051028;28;20074;-70
2022/04/26 09:16:36;;;;;;;2.95;1.40;;;21.10;81.20;;;;;;5065373;28;20062;-71
2022/04/26 09:19:06;;;;;;;2.80;1.25;;;21.30;80.50;;;;;;5071678;28;20036;-71
2022/04/26 09:21:34;;;;;;;4.45;1.80;;;21.40;78.10;;;;;;5068439;28;20028;-70
2022/04/26 09:24:02;;;;;;;2.15;1.70;;;21.20;80.90;;;;;;5065643;28;20099;-70
2022/04/26 09:26:36;;;;;;;3.97;1.58;;;21.20;79.40;;;;;;5063434;28;20351;-72
2022/04/26 09:29:06;;;;;;;3.10;1.48;;;21.30;84.60;;;;;;5067104;28;20025;-71
2022/04/26 09:31:37;;;;;;;2.15;1.30;;;21.60;79.10;;;;;;5062166;28;20032;-72
2022/04/26 09:34:11;;;;;;;1.73;1.17;;;21.80;82.50;;;;;;5056135;28;20151;-71
2022/04/26 09:36:45;;;;;;;2.53;1.50;;;22.20;82.10;;;;;;5075918;28;20025;-71
2022/04/26 09:39:20;;;;;;;4.65;1.50;;;22.50;76.50;;;;;;5062725;28;20021;-70
2022/04/26 09:41:50;;;;;;;2.63;1.50;;;22.30;78.10;;;;;;5061270;28;20032;-72
2022/04/26 09:44:16;;;;;;;3.00;1.48;;;22.00;77.50;;;;;;5049885;28;20033;-71
2022/04/26 09:46:50;;;;;;;1.40;1.30;;;21.80;76.50;;;;;;5050992;28;20044;-70
2022/04/26 09:49:18;;;;;;;1.27;1.17;;;21.70;75.30;;;;;;5051788;28;20045;-72
2022/04/26 09:51:46;;;;;;;2.15;1.35;;;21.50;77.00;;;;;;5050447;28;20463;-71
2022/04/26 09:54:13;;;;;;;2.65;0.85;;;21.70;74.60;;;;;;5067564;28;20041;-70
2022/04/26 09:56:39;;;;;;;2.92;1.00;;;22.10;76.10;;;;;;5049724;28;20106;-71
2022/04/26 09:59:05;;;;;;;1.25;1.00;;;22.00;71.40;;;;;;5049605;28;20067;-69
2022/04/26 10:01:40;;;;;;;1.13;0.93;;;22.00;71.20;;;;;;5051144;28;20052;-70
2022/04/26 10:04:09;;;;;;;1.35;0.95;;;22.10;70.80;;;;;;5056604;28;20017;-68
2022/04/26 10:06:39;;;;;;;3.53;1.10;;;22.20;73.80;;;;;;5053274;28;20032;-69
2022/04/26 10:09:08;;;;;;;1.20;1.10;;;22.00;74.60;;;;;;5053422;28;20078;-70
2022/04/26 10:11:34;;;;;;;2.08;1.27;;;21.90;73.40;;;;;;5050115;28;20035;-72
2022/04/26 10:14:04;;;;;;;2.22;1.42;;;21.80;72.10;;;;;;5050184;28;20025;-70
2022/04/26 10:16:31;;;;;;;3.75;1.20;;;21.20;72.20;;;;;;5050098;28;20032;-66
2022/04/26 10:19:12;;;;;;;9.20;1.48;;;21.40;75.50;;;;;;5050230;28;20092;-72
2022/04/26 10:21:40;;;;;;;3.28;0.90;;;21.40;77.70;;;;;;5049974;28;20075;-71
2022/04/26 10:24:16;;;;;;;1.60;1.08;;;21.80;73.50;;;;;;5049495;28;20017;-72
2022/04/26 10:26:42;;;;;;;3.58;1.17;;;21.60;72.80;;;;;;5049879;28;20106;-72
2022/04/26 10:29:07;;;;;;;9.32;2.67;;;21.70;73.70;;;;;;5049635;28;20478;-71
2022/04/26 10:31:38;;;;;;;2.40;1.38;;;21.80;74.00;;;;;;5056368;28;20118;-72
2022/04/26 10:34:26;;;;;;;2.25;0.82;;;21.40;72.30;;;;;;5071002;28;20039;-72
2022/04/26 10:37:22;;;;;;;1.08;0.80;;;21.50;72.50;;;;;;5070102;28;20086;-71
2022/04/26 10:40:02;;;;;;;1.85;1.15;;;21.80;73.80;;;;;;5071756;28;20028;-70
2022/04/26 10:42:31;;;;;;;1.35;0.82;;;22.00;71.20;;;;;;5054614;28;20055;-70
2022/04/26 10:44:59;;;;;;;18.30;3.70;;;21.80;75.40;;;;;;5070821;28;20044;-69
2022/04/26 10:47:27;;;;;;;2.67;1.45;;;22.10;75.20;;;;;;5070815;28;20028;-70
2022/04/26 10:49:55;;;;;;;4.57;1.63;;;22.20;72.90;;;;;;5068667;28;20034;-71
2022/04/26 10:52:26;;;;;;;3.70;1.00;;;22.30;72.50;;;;;;5069845;28;20138;-71
2022/04/26 10:54:55;;;;;;;1.77;1.08;;;22.30;71.10;;;;;;5069066;28;20016;-70
2022/04/26 10:57:22;;;;;;;3.28;0.95;;;22.10;70.90;;;;;;5070774;28;20058;-70
2022/04/26 10:59:56;;;;;;;1.63;0.90;;;22.00;74.10;;;;;;5070571;28;20020;-70
2022/04/26 11:02:25;;;;;;;2.45;1.10;;;22.50;72.90;;;;;;5074501;28;20048;-71
2022/04/26 11:05:09;;;;;;;1.58;0.80;;;22.80;73.00;;;;;;5055916;28;20025;-69
2022/04/26 11:07:36;;;;;;;2.28;1.23;;;23.00;71.80;;;;;;5050422;28;20059;-70
2022/04/26 11:10:04;;;;;;;2.17;0.90;;;23.10;68.90;;;;;;5053360;28;20032;-71
2022/04/26 11:12:40;;;;;;;0.75;0.75;;;23.00;72.00;;;;;;5055684;28;20040;-68
2022/04/26 11:15:21;;;;;;;1.83;1.20;;;22.70;70.70;;;;;;5055766;28;20036;-69
2022/04/26 11:17:49;;;;;;;1.75;1.15;;;21.90;68.10;;;;;;5074392;28;20109;-69
2022/04/26 11:20:18;;;;;;;0.80;0.77;;;21.90;68.10;;;;;;5076710;28;20024;-69
2022/04/26 11:22:49;;;;;;;1.33;0.90;;;22.00;71.20;;;;;;5074453;28;20032;-69
2022/04/26 11:28:11;;;;;;;4.30;1.58;;;21.90;71.20;;;;;;5073469;28;20421;-70
2022/04/26 11:30:54;;;;;;;1.23;0.90;;;22.00;69.90;;;;;;5091545;28;20158;-71
2022/04/26 11:33:22;;;;;;;3.40;1.15;;;21.90;68.30;;;;;;5094778;28;20485;-70
2022/04/26 11:35:55;;;;;;;2.72;1.40;;;22.20;69.70;;;;;;5094587;28;20020;-71
2022/04/26 11:38:22;;;;;;;0.98;0.90;;;22.20;67.80;;;;;;5093357;28;20543;-71
2022/04/26 11:40:50;;;;;;;1.20;1.02;;;22.30;69.10;;;;;;5072660;28;20021;-70
2022/04/26 11:43:19;;;;;;;1.88;1.13;;;22.40;67.00;;;;;;5074018;28;20024;-68
2022/04/26 11:45:47;;;;;;;1.25;1.00;;;22.50;69.60;;;;;;5070723;28;20048;-69
2022/04/26 11:48:21;;;;;;;2.42;1.10;;;22.60;70.50;;;;;;5074478;28;20032;-70
2022/04/26 11:50:49;;;;;;;1.17;0.90;;;22.40;67.30;;;;;;5086791;28;20047;-70
2022/04/26 11:53:17;;;;;;;2.78;1.25;;;22.40;69.30;;;;;;5073080;28;20021;-70
2022/04/26 11:55:45;;;;;;;2.42;1.27;;;22.30;71.50;;;;;;5073132;28;20043;-70
2022/04/26 11:58:21;;;;;;;2.45;1.23;;;22.10;68.50;;;;;;5092490;28;20024;-69
2022/04/26 12:00:54;;;;;;;2.22;0.80;;;22.10;68.30;;;;;;5073419;28;20017;-69
2022/04/26 12:03:23;;;;;;;7.38;1.20;;;22.00;68.10;;;;;;5073841;28;20028;-71
2022/04/26 12:06:03;;;;;;;3.25;1.05;;;22.20;70.80;;;;;;5077752;28;20020;-66
2022/04/26 12:08:50;;;;;;;1.13;0.98;;;22.20;68.20;;;;;;5094171;28;20024;-71
2022/04/26 12:11:23;;;;;;;1.60;0.85;;;22.20;69.70;;;;;;5093949;28;20058;-71
2022/04/26 12:14:01;;;;;;;1.73;1.02;;;21.90;66.90;;;;;;5094419;28;20028;-70
2022/04/26 12:16:28;;;;;;;3.97;1.55;;;22.00;69.10;;;;;;5083797;28;20035;-66
2022/04/26 12:18:56;;;;;;;1.27;0.95;;;22.00;67.90;;;;;;5072612;28;20036;-69
2022/04/26 12:21:26;;;;;;;1.08;0.98;;;22.30;67.60;;;;;;5077277;28;20032;-69
2022/04/26 12:24:11;;;;;;;2.25;1.10;;;22.50;69.50;;;;;;5073540;28;20557;-65
2022/04/26 12:26:51;;;;;;;3.13;1.20;;;22.60;66.00;;;;;;5072800;28;20028;-71
2022/04/26 12:29:18;;;;;;;3.75;1.17;;;22.40;67.10;;;;;;5087399;28;20020;-70
2022/04/26 12:31:47;;;;;;;2.60;1.30;;;22.50;67.70;;;;;;5090346;28;20093;-71
2022/04/26 12:34:29;;;;;;;2.92;1.23;;;22.50;66.90;;;;;;5076679;28;20027;-71
2022/04/26 12:37:07;;;;;;;4.03;0.93;;;22.50;67.00;;;;;;5073550;28;20506;-71
2022/04/26 12:39:38;;;;;;;2.53;1.20;;;22.50;66.00;;;;;;5074572;28;20012;-68
2022/04/26 12:42:05;;;;;;;2.70;1.35;;;22.70;67.80;;;;;;5073413;28;20028;-66
2022/04/26 12:44:31;;;;;;;1.35;0.98;;;22.40;64.10;;;;;;5073091;28;20068;-68
2022/04/26 12:52:42;;;;;;;3.30;1.27;;;23.00;65.70;;;;;;5073276;28;20193;-72
2022/04/26 12:55:08;;;;;;;2.72;1.10;;;22.60;66.10;;;;;;5073393;28;20029;-69
2022/04/26 12:57:51;;;;;;;3.10;1.00;;;22.70;67.80;;;;;;5072795;28;20013;-71
2022/04/26 13:00:21;;;;;;;1.45;1.10;;;22.60;66.60;;;;;;5073253;28;20075;-71
2022/04/26 13:02:52;;;;;;;0.90;0.88;;;22.60;65.10;;;;;;5074649;28;20474;-71
2022/04/26 13:05:19;;;;;;;4.95;1.60;;;22.40;65.90;;;;;;5078814;28;20051;-71
2022/04/26 13:07:48;;;;;;;1.50;1.08;;;22.30;65.90;;;;;;5075008;28;20717;-68
2022/04/26 13:10:16;;;;;;;1.08;0.98;;;22.20;67.30;;;;;;5080720;28;20111;-69
2022/04/26 13:12:42;;;;;;;1.30;1.20;;;22.50;67.10;;;;;;5072428;28;20082;-70
2022/04/26 13:15:09;;;;;;;1.48;0.98;;;22.70;68.40;;;;;;5072452;28;20031;-69
2022/04/26 13:17:39;;;;;;;2.55;1.10;;;22.60;65.40;;;;;;5072276;28;20077;-72
2022/04/26 13:20:06;;;;;;;3.05;1.27;;;22.70;65.60;;;;;;5078471;28;20016;-70
2022/04/26 13:22:36;;;;;;;1.88;1.13;;;22.70;66.90;;;;;;5080121;28;20061;-71
2022/04/26 13:25:05;;;;;;;1.83;1.02;;;22.70;65.30;;;;;;5075853;28;20021;-71
2022/04/26 13:27:32;;;;;;;2.60;1.08;;;22.50;64.00;;;;;;5072412;28;20025;-68
2022/04/26 13:29:59;;;;;;;1.23;1.00;;;22.60;65.80;;;;;;5072327;28;20024;-70
2022/04/26 13:32:25;;;;;;;1.63;1.05;;;22.50;63.80;;;;;;5072290;28;20040;-70
2022/04/26 13:34:52;;;;;;;1.00;1.00;;;22.50;63.10;;;;;;5070150;28;20024;-69
2022/04/26 13:37:19;;;;;;;1.60;1.20;;;22.30;63.90;;;;;;5052151;28;20025;-70
2022/04/26 13:39:45;;;;;;;2.47;1.20;;;22.40;66.10;;;;;;5064599;28;20056;-67
2022/04/26 13:42:12;;;;;;;2.70;0.75;;;22.40;62.60;;;;;;5071237;28;20050;-70
2022/04/26 13:44:38;;;;;;;2.75;1.60;;;22.50;62.00;;;;;;5071669;28;20064;-70
2022/04/26 13:47:06;;;;;;;5.43;1.40;;;22.70;63.60;;;;;;5070503;28;20385;-67
2022/04/26 13:49:34;;;;;;;2.03;1.25;;;22.70;64.50;;;;;;5067484;28;20066;-70
2022/04/26 13:52:04;;;;;;;1.73;1.05;;;22.70;62.50;;;;;;5070433;28;20032;-67
2022/04/26 13:54:30;;;;;;;2.97;1.50;;;22.70;61.00;;;;;;5070427;28;20054;-65
2022/04/26 13:56:56;;;;;;;2.58;1.00;;;22.80;63.90;;;;;;5071134;28;20427;-68
2022/04/26 13:59:23;;;;;;;2.83;1.33;;;22.70;61.60;;;;;;5071244;28;20040;-71
2022/04/26 14:01:50;;;;;;;2.53;1.30;;;22.60;63.10;;;;;;5069315;28;20655;-70
2022/04/26 14:04:17;;;;;;;2.80;1.17;;;22.60;62.40;;;;;;5070792;28;20020;-70
2022/04/26 14:06:43;;;;;;;1.98;1.00;;;22.70;64.30;;;;;;5067465;28;20036;-71
2022/04/26 14:09:09;;;;;;;1.40;1.00;;;22.60;63.50;;;;;;5060117;28;20025;-69
2022/04/26 14:11:35;;;;;;;6.65;1.20;;;22.60;64.30;;;;;;5070742;28;20428;-69
2022/04/26 14:22:15;;;;;;;1.88;1.15;;;22.80;62.40;;;;;;5071068;28;20478;-70
2022/04/26 14:24:42;;;;;;;2.45;1.17;;;22.70;63.50;;;;;;5070108;28;20055;-70
2022/04/26 14:27:08;;;;;;;2.83;1.25;;;22.60;62.00;;;;;;5070992;28;20036;-65
2022/04/26 14:29:34;;;;;;;2.15;1.20;;;22.80;62.60;;;;;;5070371;28;20024;-71
2022/04/26 14:32:00;;;;;;;1.45;1.10;;;22.80;64.60;;;;;;5066745;28;20036;-70
2022/04/26 14:34:26;;;;;;;2.15;1.10;;;22.70;63.90;;;;;;5053000;28;20028;-70
2022/04/26 14:36:53;;;;;;;3.35;1.33;;;22.60;61.70;;;;;;5060945;28;20044;-71
2022/04/26 14:39:19;;;;;;;4.13;2.53;;;22.60;61.80;;;;;;5057894;28;20016;-67
2022/04/26 14:41:44;;;;;;;4.72;2.00;;;22.70;62.10;;;;;;5051719;28;20041;-70
2022/04/26 14:44:10;;;;;;;1.30;1.20;;;22.60;61.00;;;;;;5050595;28;20386;-69
2022/04/26 14:46:36;;;;;;;1.20;1.00;;;22.70;60.50;;;;;;5053956;28;20106;-65
2022/04/26 14:49:03;;;;;;;6.50;2.67;;;22.70;60.80;;;;;;5069849;28;20024;-71
2022/04/26 14:51:30;;;;;;;3.10;2.28;;;22.70;60.30;;;;;;5070185;28;20029;-70
2022/04/26 14:53:56;;;;;;;4.65;1.38;;;22.80;60.50;;;;;;5069245;28;20012;-67
2022/04/26 14:56:22;;;;;;;2.92;1.60;;;23.00;60.80;;;;;;5070274;28;20024;-72
2022/04/26 14:58:49;;;;;;;1.55;1.33;;;23.00;59.80;;;;;;5068264;28;20025;-66
2022/04/26 15:01:16;;;;;;;1.27;1.00;;;23.10;63.10;;;;;;5068251;28;20036;-71
2022/04/26 15:03:44;;;;;;;1.80;1.20;;;23.20;61.10;;;;;;5069131;28;20028;-73
2022/04/26 15:06:10;;;;;;;2.67;1.17;;;23.10;61.00;;;;;;5069478;28;20028;-71
2022/04/26 15:11:22;;;;;;;3.88;1.42;;;22.80;63.10;;;;;;5068601;28;20032;-72
2022/04/26 15:16:38;;;;;;;1.45;1.10;;;22.60;61.80;;;;;;5069325;28;20024;-71
2022/04/26 15:19:12;;;;;;;3.45;1.30;;;22.50;61.60;;;;;;5069674;28;20136;-71
2022/04/26 15:21:38;;;;;;;1.58;1.05;;;22.60;61.40;;;;;;5065472;28;20637;-71
2022/04/26 15:24:05;;;;;;;2.53;1.50;;;22.60;61.20;;;;;;5067075;28;20021;-72
2022/04/26 15:26:31;;;;;;;3.08;1.38;;;22.50;62.90;;;;;;5068689;28;20029;-71
2022/04/26 15:28:58;;;;;;;2.15;1.17;;;22.40;61.20;;;;;;5070055;28;20017;-72
2022/04/26 15:31:24;;;;;;;1.33;1.23;;;22.40;61.60;;;;;;5071182;28;20394;-66
2022/04/26 15:33:52;;;;;;;4.43;1.23;;;22.40;61.60;;;;;;5069620;28;20020;-71
2022/04/26 15:36:20;;;;;;;3.97;1.30;;;22.30;61.80;;;;;;5071858;28;20075;-72
2022/04/26 15:38:48;;;;;;;1.70;1.00;;;22.30;61.20;;;;;;5068583;28;20021;-66
2022/04/26 15:41:16;;;;;;;1.45;1.15;;;22.40;60.80;;;;;;5061669;28;20031;-71
2022/04/26 15:43:43;;;;;;;2.00;1.50;;;22.50;61.40;;;;;;5061170;28;20043;-66
2022/04/26 15:46:10;;;;;;;1.00;1.00;;;22.50;60.90;;;;;;5062435;28;20098;-72
2022/04/26 15:48:47;;;;;;;1.55;1.17;;;22.50;62.10;;;;;;5066080;28;20029;-70
2022/04/26 15:51:17;;;;;;;2.35;1.20;;;22.40;61.70;;;;;;5061125;28;20037;-71
2022/04/26 15:53:46;;;;;;;2.50;1.10;;;22.40;61.60;;;;;;5062313;28;20035;-69
2022/04/26 15:56:13;;;;;;;2.10;1.10;;;22.30;61.70;;;;;;5071068;28;20020;-70
2022/04/26 15:58:39;;;;;;;2.25;1.30;;;22.40;62.90;;;;;;5073423;28;20020;-71
2022/04/26 16:01:05;;;;;;;2.20;1.08;;;22.40;64.00;;;;;;5073244;28;20016;-72
2022/04/26 16:03:30;;;;;;;3.67;1.50;;;22.40;63.90;;;;;;5073125;28;20024;-70
2022/04/26 16:05:56;;;;;;;1.17;1.00;;;22.50;62.20;;;;;;5072864;28;20020;-69
2022/04/26 16:08:22;;;;;;;4.45;1.60;;;22.60;63.90;;;;;;5068704;28;20043;-68
2022/04/26 16:21:46;;;;;;;3.45;1.70;;;22.30;62.50;;;;;;5073278;28;20029;-71
2022/04/26 16:24:12;;;;;;;2.35;1.20;;;22.30;62.50;;;;;;5073282;28;20425;-70
2022/04/26 16:26:39;;;;;;;1.50;1.08;;;22.30;62.10;;;;;;5072930;28;20330;-71
2022/04/26 16:29:07;;;;;;;2.42;1.58;;;22.20;60.90;;;;;;5072935;28;20652;-70
2022/04/26 16:31:33;;;;;;;3.13;1.30;;;22.10;62.60;;;;;;5070558;28;20466;-68
2022/04/26 16:34:00;;;;;;;3.22;1.90;;;22.10;63.10;;;;;;5072837;28;20382;-72
2022/04/26 16:36:28;;;;;;;3.35;2.42;;;22.00;63.00;;;;;;5072377;28;20421;-68
2022/04/26 16:38:54;;;;;;;4.53;3.00;;;21.90;64.50;;;;;;5072968;28;20013;-72
2022/04/26 16:41:21;;;;;;;2.33;1.70;;;21.90;62.60;;;;;;5072590;28;20024;-71
2022/04/26 16:43:48;;;;;;;2.50;1.90;;;21.80;61.70;;;;;;5072561;28;20515;-71
2022/04/26 16:46:19;;;;;;;2.28;1.67;;;21.80;62.60;;;;;;5070178;28;20056;-69
2022/04/26 16:48:48;;;;;;;3.10;1.50;;;21.80;62.30;;;;;;5072396;28;20036;-70
2022/04/26 16:51:19;;;;;;;2.28;1.52;;;21.70;63.00;;;;;;5072395;28;20470;-67
2022/04/26 16:53:46;;;;;;;3.47;1.60;;;21.60;63.20;;;;;;5072684;28;20032;-71
2022/04/26 16:56:12;;;;;;;2.45;1.58;;;21.60;64.20;;;;;;5072569;28;20024;-70
2022/04/26 16:58:38;;;;;;;2.83;2.00;;;21.60;64.10;;;;;;5072203;28;20036;-72
2022/04/26 17:01:04;;;;;;;2.85;1.95;;;21.50;64.20;;;;;;5072084;28;20021;-69
2022/04/26 17:03:30;;;;;;;6.57;2.80;;;21.40;63.50;;;;;;5072265;28;20127;-72
2022/04/26 17:05:56;;;;;;;25.55;11.50;;;21.30;64.40;;;;;;5072345;28;20088;-71
2022/04/26 17:08:22;;;;;;;20.25;9.43;;;21.20;64.00;;;;;;5071822;28;20029;-69
2022/04/26 17:10:48;;;;;;;24.45;11.65;;;21.10;64.20;;;;;;5071660;28;20154;-71
2022/04/26 17:13:15;;;;;;;19.60;9.30;;;21.00;65.00;;;;;;5072168;28;20058;-67